Terminal Aerodrome Forecast
Issued by NWS

Home | Current Version | Previous Version | Text Only | Print | Product List | Glossary On
Versions: 1 2 3 4 5 6 7 8 9 10 11 12 13 14 15
000
FTUS42 TJSJ 260500
TAFNCM
TAF
TNCM 260532Z 2606/2706 08012KT P6SM VCSH SCT018
     FM261400 09014G24KT P6SM SCT020
     FM262300 08013KT P6SM FEW021=

USA.gov is the U.S. government's official web portal to all federal, state and local government web resources and services.